Terminal Aerodrome Forecast
Issued by NWS

Home | Current Version | Previous Version | Text Only | Print | Product List | Glossary On
Versions: 1 2 3 4 5 6 7 8 9 10 11 12 13 14 15
306
FTUS43 KGRB 110522
TAFCWA
TAF
KCWA 110522Z 1106/1206 32008KT P6SM FEW025
     FM111500 29008G13KT P6SM SKC
     FM112200 26006KT P6SM BKN080
      AMD LTD TO CLD VIS AND WND TIL 11Z=

USA.gov is the U.S. government's official web portal to all federal, state and local government web resources and services.